Main page
METAR-TAF:

METAR-TAF

Airports :

Liepāja International Airport

Liepāja, Latvia

latitude: 56-31N, longitude: 021-05E, elevation: 5 m

Current weather observation

The report was made 30 minutes ago, at 19:50 UTC
Calm wind
Temperature 7°C
Humidity 100%
Pressure 1023 hPa
Visibility: 0600 m
fog

METAR: EVLA 201950Z AUTO 00000KT 0600 R06/1600D R24/0650N FG FEW003/// SCT051/// 07/07 Q1023

Time: 23:20 (20:20 UTC)

Forecast

The report was made 3 hours and 18 minutes ago, at 17:02 UTC
Forecast valid from 20 at 18 UTC to 21 at 18 UTC
Wind 5 kt from the West/Southwest
Visibility: 9000 m
Scattered clouds at a height of 3000 ft
Temporary
from 20 at 18 UTC to 21 at 08 UTC
Visibility: 0600 m
at a height of 100 ft
fog

TAF: EVLA 201702Z 2018/2118 24005KT 9000 SCT030 TEMPO 2018/2108 0600 FG VV001

Weather observations and forecasts of more than 4000 airports (METAR and TAF reports).

The available stations are represented by yellow and red dots on the map.

Hover mouse over dot to see the name of the station.

Then click to see weather observations and forecasts.

To change the map : click on the green buttons with a black cross to zoom in, on the green button with a dash to zoom out, or on the green arrows for adjacent maps.


METAR-TAF: